sensor_id;sensor_type;location;lat;lon;timestamp;temperature;humidity
53310;DHT22;39197;53.200;5.792;2023-02-23T00:01:26;7.20;99.90
53310;DHT22;39197;53.200;5.792;2023-02-23T00:03:58;7.30;99.90
53310;DHT22;39197;53.200;5.792;2023-02-23T00:06:26;7.20;99.90
53310;DHT22;39197;53.200;5.792;2023-02-23T00:08:52;7.30;99.90
53310;DHT22;39197;53.200;5.792;2023-02-23T00:11:19;7.20;99.90
53310;DHT22;39197;53.200;5.792;2023-02-23T00:13:47;7.30;99.90
53310;DHT22;39197;53.200;5.792;2023-02-23T00:16:22;7.20;99.90
53310;DHT22;39197;53.200;5.792;2023-02-23T00:18:54;7.30;99.90
53310;DHT22;39197;53.200;5.792;2023-02-23T00:21:22;7.30;99.90
53310;DHT22;39197;53.200;5.792;2023-02-23T00:23:59;7.20;99.90
53310;DHT22;39197;53.200;5.792;2023-02-23T00:26:27;7.20;99.90
53310;DHT22;39197;53.200;5.792;2023-02-23T00:29:00;7.30;99.90
53310;DHT22;39197;53.200;5.792;2023-02-23T00:31:27;7.30;99.90
53310;DHT22;39197;53.200;5.792;2023-02-23T00:33:56;7.20;99.90
53310;DHT22;39197;53.200;5.792;2023-02-23T00:36:25;7.30;99.90
53310;DHT22;39197;53.200;5.792;2023-02-23T00:38:52;7.20;99.90
53310;DHT22;39197;53.200;5.792;2023-02-23T00:41:18;7.20;99.90
53310;DHT22;39197;53.200;5.792;2023-02-23T00:43:47;7.20;99.90
53310;DHT22;39197;53.200;5.792;2023-02-23T00:46:14;7.20;99.90
53310;DHT22;39197;53.200;5.792;2023-02-23T00:48:44;7.20;99.90
53310;DHT22;39197;53.200;5.792;2023-02-23T00:51:10;7.20;99.90
53310;DHT22;39197;53.200;5.792;2023-02-23T00:53:36;7.30;99.90
53310;DHT22;39197;53.200;5.792;2023-02-23T00:56:06;7.30;99.90
53310;DHT22;39197;53.200;5.792;2023-02-23T00:58:32;7.20;99.90
53310;DHT22;39197;53.200;5.792;2023-02-23T01:00:58;7.30;99.90
53310;DHT22;39197;53.200;5.792;2023-02-23T01:03:25;7.20;99.90
53310;DHT22;39197;53.200;5.792;2023-02-23T01:05:51;7.30;99.90
53310;DHT22;39197;53.200;5.792;2023-02-23T01:08:17;7.30;99.90
53310;DHT22;39197;53.200;5.792;2023-02-23T01:10:44;7.30;99.90
53310;DHT22;39197;53.200;5.792;2023-02-23T01:13:17;7.20;99.90
53310;DHT22;39197;53.200;5.792;2023-02-23T01:15:43;7.20;99.90
53310;DHT22;39197;53.200;5.792;2023-02-23T01:18:10;7.30;99.90
53310;DHT22;39197;53.200;5.792;2023-02-23T01:20:36;7.30;99.90
53310;DHT22;39197;53.200;5.792;2023-02-23T01:23:02;7.30;99.90
53310;DHT22;39197;53.200;5.792;2023-02-23T01:25:28;7.30;99.90
53310;DHT22;39197;53.200;5.792;2023-02-23T01:27:54;7.30;99.90
53310;DHT22;39197;53.200;5.792;2023-02-23T01:30:20;7.30;99.90
53310;DHT22;39197;53.200;5.792;2023-02-23T01:32:46;7.30;99.90
53310;DHT22;39197;53.200;5.792;2023-02-23T01:35:12;7.30;99.90
53310;DHT22;39197;53.200;5.792;2023-02-23T01:37:40;7.30;99.90
53310;DHT22;39197;53.200;5.792;2023-02-23T01:40:13;7.30;99.90
53310;DHT22;39197;53.200;5.792;2023-02-23T01:42:42;7.30;99.90
53310;DHT22;39197;53.200;5.792;2023-02-23T01:45:28;7.30;99.90
53310;DHT22;39197;53.200;5.792;2023-02-23T01:48:18;7.30;99.90
53310;DHT22;39197;53.200;5.792;2023-02-23T01:53:18;7.30;99.90
53310;DHT22;39197;53.200;5.792;2023-02-23T01:55:50;7.20;99.90
53310;DHT22;39197;53.200;5.792;2023-02-23T01:58:19;7.30;99.90
53310;DHT22;39197;53.200;5.792;2023-02-23T02:00:49;7.20;99.90
53310;DHT22;39197;53.200;5.792;2023-02-23T02:03:29;7.20;99.90
53310;DHT22;39197;53.200;5.792;2023-02-23T02:05:57;7.30;99.90
53310;DHT22;39197;53.200;5.792;2023-02-23T02:08:24;7.20;99.90
53310;DHT22;39197;53.200;5.792;2023-02-23T02:10:51;7.30;99.90
53310;DHT22;39197;53.200;5.792;2023-02-23T02:13:24;7.20;99.90
53310;DHT22;39197;53.200;5.792;2023-02-23T02:16:15;7.20;99.90
53310;DHT22;39197;53.200;5.792;2023-02-23T02:18:48;7.20;99.90
53310;DHT22;39197;53.200;5.792;2023-02-23T02:27:22;7.20;99.90
53310;DHT22;39197;53.200;5.792;2023-02-23T02:32:57;7.30;99.90
53310;DHT22;39197;53.200;5.792;2023-02-23T02:35:46;7.30;99.90
53310;DHT22;39197;53.200;5.792;2023-02-23T02:41:16;7.20;99.90
53310;DHT22;39197;53.200;5.792;2023-02-23T02:44:13;7.20;99.90
53310;DHT22;39197;53.200;5.792;2023-02-23T02:46:43;7.20;99.90
53310;DHT22;39197;53.200;5.792;2023-02-23T02:49:25;7.20;99.90
53310;DHT22;39197;53.200;5.792;2023-02-23T02:54:47;7.20;99.90
53310;DHT22;39197;53.200;5.792;2023-02-23T02:57:14;7.20;99.90
53310;DHT22;39197;53.200;5.792;2023-02-23T02:59:47;7.20;99.90
53310;DHT22;39197;53.200;5.792;2023-02-23T03:02:34;7.20;99.90
53310;DHT22;39197;53.200;5.792;2023-02-23T03:05:23;7.10;99.90
53310;DHT22;39197;53.200;5.792;2023-02-23T03:11:14;7.20;99.90
53310;DHT22;39197;53.200;5.792;2023-02-23T03:20:09;7.10;99.90
53310;DHT22;39197;53.200;5.792;2023-02-23T03:23:23;7.10;99.90
53310;DHT22;39197;53.200;5.792;2023-02-23T03:29:57;7.10;99.90
53310;DHT22;39197;53.200;5.792;2023-02-23T03:32:54;7.00;99.90
53310;DHT22;39197;53.200;5.792;2023-02-23T03:35:46;6.90;99.90
53310;DHT22;39197;53.200;5.792;2023-02-23T03:38:34;6.90;99.90
53310;DHT22;39197;53.200;5.792;2023-02-23T03:41:20;6.90;99.90
53310;DHT22;39197;53.200;5.792;2023-02-23T03:44:14;6.90;99.90
53310;DHT22;39197;53.200;5.792;2023-02-23T03:47:00;6.90;99.90
53310;DHT22;39197;53.200;5.792;2023-02-23T03:49:46;6.90;99.90
53310;DHT22;39197;53.200;5.792;2023-02-23T03:52:40;6.80;99.90
53310;DHT22;39197;53.200;5.792;2023-02-23T03:55:30;6.80;99.90
53310;DHT22;39197;53.200;5.792;2023-02-23T03:58:25;6.80;99.90
53310;DHT22;39197;53.200;5.792;2023-02-23T04:01:11;6.80;99.90
53310;DHT22;39197;53.200;5.792;2023-02-23T04:03:57;6.80;99.90
53310;DHT22;39197;53.200;5.792;2023-02-23T04:06:46;6.80;99.90
53310;DHT22;39197;53.200;5.792;2023-02-23T04:09:31;6.80;99.90
53310;DHT22;39197;53.200;5.792;2023-02-23T04:12:33;6.80;99.90
53310;DHT22;39197;53.200;5.792;2023-02-23T04:15:33;6.80;99.90
53310;DHT22;39197;53.200;5.792;2023-02-23T04:18:03;6.80;99.90
53310;DHT22;39197;53.200;5.792;2023-02-23T04:20:28;6.80;99.90
53310;DHT22;39197;53.200;5.792;2023-02-23T04:22:54;6.70;99.90
53310;DHT22;39197;53.200;5.792;2023-02-23T04:25:20;6.80;99.90
53310;DHT22;39197;53.200;5.792;2023-02-23T04:27:49;6.80;99.90
53310;DHT22;39197;53.200;5.792;2023-02-23T04:30:15;6.70;99.90
53310;DHT22;39197;53.200;5.792;2023-02-23T04:32:42;6.70;99.90
53310;DHT22;39197;53.200;5.792;2023-02-23T04:35:11;6.80;99.90
53310;DHT22;39197;53.200;5.792;2023-02-23T04:37:36;6.80;99.90
53310;DHT22;39197;53.200;5.792;2023-02-23T04:40:03;6.80;99.90
53310;DHT22;39197;53.200;5.792;2023-02-23T04:42:29;6.80;99.90
53310;DHT22;39197;53.200;5.792;2023-02-23T04:44:55;6.80;99.90
53310;DHT22;39197;53.200;5.792;2023-02-23T04:47:20;6.80;99.90
53310;DHT22;39197;53.200;5.792;2023-02-23T04:49:46;6.80;99.90
53310;DHT22;39197;53.200;5.792;2023-02-23T04:52:12;6.80;99.90
53310;DHT22;39197;53.200;5.792;2023-02-23T04:54:38;6.70;99.90
53310;DHT22;39197;53.200;5.792;2023-02-23T04:57:05;6.80;99.90
53310;DHT22;39197;53.200;5.792;2023-02-23T04:59:30;6.80;99.90
53310;DHT22;39197;53.200;5.792;2023-02-23T05:01:56;6.80;99.90
53310;DHT22;39197;53.200;5.792;2023-02-23T05:04:22;6.80;99.90
53310;DHT22;39197;53.200;5.792;2023-02-23T05:06:48;6.80;99.90
53310;DHT22;39197;53.200;5.792;2023-02-23T05:09:13;6.80;99.90
53310;DHT22;39197;53.200;5.792;2023-02-23T05:11:39;6.90;99.90
53310;DHT22;39197;53.200;5.792;2023-02-23T05:14:05;6.80;99.90
53310;DHT22;39197;53.200;5.792;2023-02-23T05:16:31;6.80;99.90
53310;DHT22;39197;53.200;5.792;2023-02-23T05:18:56;6.80;99.90
53310;DHT22;39197;53.200;5.792;2023-02-23T05:21:22;6.80;99.90
53310;DHT22;39197;53.200;5.792;2023-02-23T05:23:48;6.80;99.90
53310;DHT22;39197;53.200;5.792;2023-02-23T05:26:13;6.80;99.90
53310;DHT22;39197;53.200;5.792;2023-02-23T05:28:41;6.80;99.90
53310;DHT22;39197;53.200;5.792;2023-02-23T05:31:07;6.80;99.90
53310;DHT22;39197;53.200;5.792;2023-02-23T05:33:33;6.80;99.90
53310;DHT22;39197;53.200;5.792;2023-02-23T05:35:59;6.80;99.90
53310;DHT22;39197;53.200;5.792;2023-02-23T05:38:28;6.90;99.90
53310;DHT22;39197;53.200;5.792;2023-02-23T05:40:54;6.90;99.90
53310;DHT22;39197;53.200;5.792;2023-02-23T05:43:19;7.00;99.90
53310;DHT22;39197;53.200;5.792;2023-02-23T05:45:45;7.00;99.90
53310;DHT22;39197;53.200;5.792;2023-02-23T05:48:11;7.00;99.90
53310;DHT22;39197;53.200;5.792;2023-02-23T05:50:37;7.00;99.90
53310;DHT22;39197;53.200;5.792;2023-02-23T05:53:03;7.10;99.90
53310;DHT22;39197;53.200;5.792;2023-02-23T05:55:28;7.10;99.90
53310;DHT22;39197;53.200;5.792;2023-02-23T05:57:54;7.10;99.90
53310;DHT22;39197;53.200;5.792;2023-02-23T06:00:20;7.00;99.90
53310;DHT22;39197;53.200;5.792;2023-02-23T06:02:46;7.10;99.90
53310;DHT22;39197;53.200;5.792;2023-02-23T06:05:12;7.10;99.90
53310;DHT22;39197;53.200;5.792;2023-02-23T06:07:38;7.00;99.90
53310;DHT22;39197;53.200;5.792;2023-02-23T06:10:05;7.10;99.90
53310;DHT22;39197;53.200;5.792;2023-02-23T06:12:31;7.10;99.90
53310;DHT22;39197;53.200;5.792;2023-02-23T06:14:57;7.00;99.90
53310;DHT22;39197;53.200;5.792;2023-02-23T06:17:23;7.10;99.90
53310;DHT22;39197;53.200;5.792;2023-02-23T06:19:49;7.10;99.90
53310;DHT22;39197;53.200;5.792;2023-02-23T06:22:15;7.10;99.90
53310;DHT22;39197;53.200;5.792;2023-02-23T06:24:42;7.00;99.90
53310;DHT22;39197;53.200;5.792;2023-02-23T06:27:08;7.00;99.90
53310;DHT22;39197;53.200;5.792;2023-02-23T06:29:34;7.10;99.90
53310;DHT22;39197;53.200;5.792;2023-02-23T06:32:01;7.00;99.90
53310;DHT22;39197;53.200;5.792;2023-02-23T06:34:27;7.10;99.90
53310;DHT22;39197;53.200;5.792;2023-02-23T06:36:53;7.10;99.90
53310;DHT22;39197;53.200;5.792;2023-02-23T06:39:18;7.10;99.90
53310;DHT22;39197;53.200;5.792;2023-02-23T06:41:44;7.10;99.90
53310;DHT22;39197;53.200;5.792;2023-02-23T06:44:09;7.10;99.90
53310;DHT22;39197;53.200;5.792;2023-02-23T06:46:35;7.10;99.90
53310;DHT22;39197;53.200;5.792;2023-02-23T06:49:02;7.10;99.90
53310;DHT22;39197;53.200;5.792;2023-02-23T06:51:28;7.10;99.90
53310;DHT22;39197;53.200;5.792;2023-02-23T06:53:54;7.10;99.90
53310;DHT22;39197;53.200;5.792;2023-02-23T06:56:19;7.10;99.90
53310;DHT22;39197;53.200;5.792;2023-02-23T06:58:46;7.10;99.90
53310;DHT22;39197;53.200;5.792;2023-02-23T07:01:12;7.10;99.90
53310;DHT22;39197;53.200;5.792;2023-02-23T07:03:38;7.10;99.90
53310;DHT22;39197;53.200;5.792;2023-02-23T07:06:04;7.10;99.90
53310;DHT22;39197;53.200;5.792;2023-02-23T07:08:31;7.10;99.90
53310;DHT22;39197;53.200;5.792;2023-02-23T07:11:05;7.10;99.90
53310;DHT22;39197;53.200;5.792;2023-02-23T07:13:31;7.10;99.90
53310;DHT22;39197;53.200;5.792;2023-02-23T07:15:57;7.10;99.90
53310;DHT22;39197;53.200;5.792;2023-02-23T07:18:22;7.10;99.90
53310;DHT22;39197;53.200;5.792;2023-02-23T07:20:49;7.10;99.90
53310;DHT22;39197;53.200;5.792;2023-02-23T07:23:17;7.20;99.90
53310;DHT22;39197;53.200;5.792;2023-02-23T07:25:42;7.20;99.90
53310;DHT22;39197;53.200;5.792;2023-02-23T07:28:08;7.20;99.90
53310;DHT22;39197;53.200;5.792;2023-02-23T07:30:34;7.20;99.90
53310;DHT22;39197;53.200;5.792;2023-02-23T07:33:00;7.20;99.90
53310;DHT22;39197;53.200;5.792;2023-02-23T07:35:25;7.10;99.90
53310;DHT22;39197;53.200;5.792;2023-02-23T07:37:51;7.20;99.90
53310;DHT22;39197;53.200;5.792;2023-02-23T07:40:17;7.10;99.90
53310;DHT22;39197;53.200;5.792;2023-02-23T07:42:44;7.20;99.90
53310;DHT22;39197;53.200;5.792;2023-02-23T07:45:09;7.20;99.90
53310;DHT22;39197;53.200;5.792;2023-02-23T07:47:35;7.20;99.90
53310;DHT22;39197;53.200;5.792;2023-02-23T07:50:02;7.20;99.90
53310;DHT22;39197;53.200;5.792;2023-02-23T07:52:30;7.20;99.90
53310;DHT22;39197;53.200;5.792;2023-02-23T07:54:56;7.20;99.90
53310;DHT22;39197;53.200;5.792;2023-02-23T07:57:22;7.20;99.90
53310;DHT22;39197;53.200;5.792;2023-02-23T07:59:48;7.20;99.90
53310;DHT22;39197;53.200;5.792;2023-02-23T08:02:14;7.20;99.90
53310;DHT22;39197;53.200;5.792;2023-02-23T08:04:41;7.20;99.90
53310;DHT22;39197;53.200;5.792;2023-02-23T08:07:08;7.20;99.90
53310;DHT22;39197;53.200;5.792;2023-02-23T08:09:33;7.20;99.90
53310;DHT22;39197;53.200;5.792;2023-02-23T08:12:00;7.30;99.90
53310;DHT22;39197;53.200;5.792;2023-02-23T08:14:26;7.30;99.90
53310;DHT22;39197;53.200;5.792;2023-02-23T08:16:52;7.20;99.90
53310;DHT22;39197;53.200;5.792;2023-02-23T08:19:18;7.30;99.90
53310;DHT22;39197;53.200;5.792;2023-02-23T08:21:50;7.40;99.90
53310;DHT22;39197;53.200;5.792;2023-02-23T08:24:16;7.40;99.90
53310;DHT22;39197;53.200;5.792;2023-02-23T08:26:42;7.50;99.90
53310;DHT22;39197;53.200;5.792;2023-02-23T08:29:08;7.40;99.90
53310;DHT22;39197;53.200;5.792;2023-02-23T08:31:34;7.40;99.90
53310;DHT22;39197;53.200;5.792;2023-02-23T08:34:00;7.50;99.90
53310;DHT22;39197;53.200;5.792;2023-02-23T08:36:26;7.50;99.90
53310;DHT22;39197;53.200;5.792;2023-02-23T08:38:52;7.50;99.90
53310;DHT22;39197;53.200;5.792;2023-02-23T08:41:19;7.50;99.90
53310;DHT22;39197;53.200;5.792;2023-02-23T08:43:45;7.50;99.90
53310;DHT22;39197;53.200;5.792;2023-02-23T08:46:11;7.50;99.90
53310;DHT22;39197;53.200;5.792;2023-02-23T08:48:37;7.40;99.90
53310;DHT22;39197;53.200;5.792;2023-02-23T08:51:05;7.50;99.90
53310;DHT22;39197;53.200;5.792;2023-02-23T08:53:31;7.40;99.90
53310;DHT22;39197;53.200;5.792;2023-02-23T08:56:03;7.40;99.90
53310;DHT22;39197;53.200;5.792;2023-02-23T08:58:29;7.30;99.90
53310;DHT22;39197;53.200;5.792;2023-02-23T09:00:56;7.40;99.90
53310;DHT22;39197;53.200;5.792;2023-02-23T09:03:23;7.40;99.90
53310;DHT22;39197;53.200;5.792;2023-02-23T09:05:51;7.40;99.90
53310;DHT22;39197;53.200;5.792;2023-02-23T09:08:16;7.40;99.90
53310;DHT22;39197;53.200;5.792;2023-02-23T09:10:42;7.40;99.90
53310;DHT22;39197;53.200;5.792;2023-02-23T09:13:09;7.40;99.90
53310;DHT22;39197;53.200;5.792;2023-02-23T09:15:36;7.50;99.90
53310;DHT22;39197;53.200;5.792;2023-02-23T09:18:03;7.50;99.90
53310;DHT22;39197;53.200;5.792;2023-02-23T09:20:29;7.60;99.90
53310;DHT22;39197;53.200;5.792;2023-02-23T09:22:55;7.60;99.90
53310;DHT22;39197;53.200;5.792;2023-02-23T09:25:21;7.70;99.90
53310;DHT22;39197;53.200;5.792;2023-02-23T09:27:48;7.70;99.90
53310;DHT22;39197;53.200;5.792;2023-02-23T09:30:15;7.80;99.90
53310;DHT22;39197;53.200;5.792;2023-02-23T09:33:00;7.80;99.90
53310;DHT22;39197;53.200;5.792;2023-02-23T09:35:25;7.90;99.90
53310;DHT22;39197;53.200;5.792;2023-02-23T09:37:53;7.90;99.90
53310;DHT22;39197;53.200;5.792;2023-02-23T09:40:20;7.90;99.90
53310;DHT22;39197;53.200;5.792;2023-02-23T09:43:11;8.00;99.90
53310;DHT22;39197;53.200;5.792;2023-02-23T09:45:45;8.00;99.90
53310;DHT22;39197;53.200;5.792;2023-02-23T09:48:17;8.10;99.90
53310;DHT22;39197;53.200;5.792;2023-02-23T09:50:50;8.10;99.90
53310;DHT22;39197;53.200;5.792;2023-02-23T09:55:58;8.10;99.90
53310;DHT22;39197;53.200;5.792;2023-02-23T09:58:26;8.10;99.90
53310;DHT22;39197;53.200;5.792;2023-02-23T10:03:30;8.10;99.90
53310;DHT22;39197;53.200;5.792;2023-02-23T10:06:03;8.20;99.90
53310;DHT22;39197;53.200;5.792;2023-02-23T10:12:07;8.20;99.90
53310;DHT22;39197;53.200;5.792;2023-02-23T10:14:23;8.20;99.90
53310;DHT22;39197;53.200;5.792;2023-02-23T10:17:07;8.20;99.90
53310;DHT22;39197;53.200;5.792;2023-02-23T10:19:38;8.20;99.90
53310;DHT22;39197;53.200;5.792;2023-02-23T10:22:08;8.30;99.90
53310;DHT22;39197;53.200;5.792;2023-02-23T10:24:42;8.30;99.90
53310;DHT22;39197;53.200;5.792;2023-02-23T10:27:14;8.20;99.90
53310;DHT22;39197;53.200;5.792;2023-02-23T10:29:50;8.40;99.90
53310;DHT22;39197;53.200;5.792;2023-02-23T10:34:53;8.40;99.90
53310;DHT22;39197;53.200;5.792;2023-02-23T10:37:21;8.50;99.90
53310;DHT22;39197;53.200;5.792;2023-02-23T10:39:48;8.40;99.90
53310;DHT22;39197;53.200;5.792;2023-02-23T10:42:21;8.40;99.90
53310;DHT22;39197;53.200;5.792;2023-02-23T10:44:47;8.50;99.90
53310;DHT22;39197;53.200;5.792;2023-02-23T10:47:34;8.50;99.90
53310;DHT22;39197;53.200;5.792;2023-02-23T10:50:01;8.60;99.90
53310;DHT22;39197;53.200;5.792;2023-02-23T10:52:34;8.60;99.90
53310;DHT22;39197;53.200;5.792;2023-02-23T10:55:06;8.60;99.90
53310;DHT22;39197;53.200;5.792;2023-02-23T10:57:34;8.60;99.90
53310;DHT22;39197;53.200;5.792;2023-02-23T11:00:24;8.60;99.90
53310;DHT22;39197;53.200;5.792;2023-02-23T11:02:52;8.60;99.90
53310;DHT22;39197;53.200;5.792;2023-02-23T11:05:35;8.60;99.90
53310;DHT22;39197;53.200;5.792;2023-02-23T11:08:36;8.50;99.90
53310;DHT22;39197;53.200;5.792;2023-02-23T11:11:04;8.50;99.90
53310;DHT22;39197;53.200;5.792;2023-02-23T11:13:47;8.40;99.90
53310;DHT22;39197;53.200;5.792;2023-02-23T11:16:16;8.40;99.90
53310;DHT22;39197;53.200;5.792;2023-02-23T11:18:53;8.40;99.90
53310;DHT22;39197;53.200;5.792;2023-02-23T11:21:32;8.40;99.90
53310;DHT22;39197;53.200;5.792;2023-02-23T11:24:03;8.40;99.90
53310;DHT22;39197;53.200;5.792;2023-02-23T11:26:40;8.50;99.90
53310;DHT22;39197;53.200;5.792;2023-02-23T11:29:34;8.50;99.90
53310;DHT22;39197;53.200;5.792;2023-02-23T11:32:27;8.50;99.90
53310;DHT22;39197;53.200;5.792;2023-02-23T11:35:30;8.70;99.90
53310;DHT22;39197;53.200;5.792;2023-02-23T11:37:56;8.50;99.90
53310;DHT22;39197;53.200;5.792;2023-02-23T11:42:53;8.40;99.90
53310;DHT22;39197;53.200;5.792;2023-02-23T11:45:20;8.40;99.90
53310;DHT22;39197;53.200;5.792;2023-02-23T11:47:55;8.40;99.90
53310;DHT22;39197;53.200;5.792;2023-02-23T11:50:29;8.40;99.90
53310;DHT22;39197;53.200;5.792;2023-02-23T11:55:29;8.20;99.90
53310;DHT22;39197;53.200;5.792;2023-02-23T11:58:32;8.20;99.90
53310;DHT22;39197;53.200;5.792;2023-02-23T12:01:06;8.10;99.90
53310;DHT22;39197;53.200;5.792;2023-02-23T12:03:37;8.00;99.90
53310;DHT22;39197;53.200;5.792;2023-02-23T12:06:08;7.90;99.90
53310;DHT22;39197;53.200;5.792;2023-02-23T12:08:50;7.90;99.90
53310;DHT22;39197;53.200;5.792;2023-02-23T12:11:24;7.80;99.90
53310;DHT22;39197;53.200;5.792;2023-02-23T12:16:51;7.90;99.90
53310;DHT22;39197;53.200;5.792;2023-02-23T12:19:28;7.80;99.90
53310;DHT22;39197;53.200;5.792;2023-02-23T12:22:09;7.90;99.90
53310;DHT22;39197;53.200;5.792;2023-02-23T12:24:45;7.90;99.90
53310;DHT22;39197;53.200;5.792;2023-02-23T12:27:15;7.90;99.90
53310;DHT22;39197;53.200;5.792;2023-02-23T12:30:14;7.80;99.90
53310;DHT22;39197;53.200;5.792;2023-02-23T12:32:45;7.90;99.90
53310;DHT22;39197;53.200;5.792;2023-02-23T12:37:55;7.70;99.90
53310;DHT22;39197;53.200;5.792;2023-02-23T12:40:26;7.60;99.90
53310;DHT22;39197;53.200;5.792;2023-02-23T12:45:42;7.80;99.90
53310;DHT22;39197;53.200;5.792;2023-02-23T12:53:46;7.60;99.90
53310;DHT22;39197;53.200;5.792;2023-02-23T12:58:58;7.70;99.90
53310;DHT22;39197;53.200;5.792;2023-02-23T13:01:40;7.80;99.90
53310;DHT22;39197;53.200;5.792;2023-02-23T13:06:56;7.90;99.90
53310;DHT22;39197;53.200;5.792;2023-02-23T13:10:14;7.90;99.90
53310;DHT22;39197;53.200;5.792;2023-02-23T13:13:29;7.90;99.90
53310;DHT22;39197;53.200;5.792;2023-02-23T13:18:33;7.80;99.90
53310;DHT22;39197;53.200;5.792;2023-02-23T13:24:00;7.70;99.90
53310;DHT22;39197;53.200;5.792;2023-02-23T13:29:36;7.80;99.90
53310;DHT22;39197;53.200;5.792;2023-02-23T13:32:08;7.80;99.90
53310;DHT22;39197;53.200;5.792;2023-02-23T13:34:40;7.70;99.90
53310;DHT22;39197;53.200;5.792;2023-02-23T13:37:07;7.80;99.90
53310;DHT22;39197;53.200;5.792;2023-02-23T13:39:58;7.70;99.90
53310;DHT22;39197;53.200;5.792;2023-02-23T13:48:26;7.30;99.90
53310;DHT22;39197;53.200;5.792;2023-02-23T13:51:01;7.20;99.90
53310;DHT22;39197;53.200;5.792;2023-02-23T13:55:59;7.20;99.90
53310;DHT22;39197;53.200;5.792;2023-02-23T13:58:28;7.20;99.90
53310;DHT22;39197;53.200;5.792;2023-02-23T14:01:13;7.10;99.90
53310;DHT22;39197;53.200;5.792;2023-02-23T14:03:59;7.20;99.90
53310;DHT22;39197;53.200;5.792;2023-02-23T14:06:28;7.20;99.90
53310;DHT22;39197;53.200;5.792;2023-02-23T14:09:29;7.30;99.90
53310;DHT22;39197;53.200;5.792;2023-02-23T14:12:16;7.40;99.90
53310;DHT22;39197;53.200;5.792;2023-02-23T14:14:45;7.20;99.90
53310;DHT22;39197;53.200;5.792;2023-02-23T14:22:36;7.20;99.90
53310;DHT22;39197;53.200;5.792;2023-02-23T14:28:23;7.20;99.90
53310;DHT22;39197;53.200;5.792;2023-02-23T14:30:59;7.20;99.90
53310;DHT22;39197;53.200;5.792;2023-02-23T14:33:50;7.20;99.90
53310;DHT22;39197;53.200;5.792;2023-02-23T14:36:26;7.20;99.90
53310;DHT22;39197;53.200;5.792;2023-02-23T14:41:29;7.40;99.90
53310;DHT22;39197;53.200;5.792;2023-02-23T14:44:06;7.60;99.90
53310;DHT22;39197;53.200;5.792;2023-02-23T14:46:35;7.70;99.90
53310;DHT22;39197;53.200;5.792;2023-02-23T14:49:09;7.60;99.90
53310;DHT22;39197;53.200;5.792;2023-02-23T14:54:33;7.80;99.90
53310;DHT22;39197;53.200;5.792;2023-02-23T14:57:02;7.70;99.90
53310;DHT22;39197;53.200;5.792;2023-02-23T14:59:39;7.70;99.90
53310;DHT22;39197;53.200;5.792;2023-02-23T15:02:21;7.60;99.90
53310;DHT22;39197;53.200;5.792;2023-02-23T15:04:47;7.60;99.90
53310;DHT22;39197;53.200;5.792;2023-02-23T15:07:19;7.70;99.90
53310;DHT22;39197;53.200;5.792;2023-02-23T15:09:51;7.70;99.90
53310;DHT22;39197;53.200;5.792;2023-02-23T15:12:21;7.70;99.90
53310;DHT22;39197;53.200;5.792;2023-02-23T15:14:52;7.60;99.90
53310;DHT22;39197;53.200;5.792;2023-02-23T15:17:29;7.60;99.90
53310;DHT22;39197;53.200;5.792;2023-02-23T15:20:02;7.60;99.90
53310;DHT22;39197;53.200;5.792;2023-02-23T15:22:36;7.70;99.90
53310;DHT22;39197;53.200;5.792;2023-02-23T15:25:16;7.50;99.90
53310;DHT22;39197;53.200;5.792;2023-02-23T15:27:44;7.70;99.90
53310;DHT22;39197;53.200;5.792;2023-02-23T15:30:43;7.60;99.90
53310;DHT22;39197;53.200;5.792;2023-02-23T15:33:12;7.50;99.90
53310;DHT22;39197;53.200;5.792;2023-02-23T15:38:28;7.50;99.90
53310;DHT22;39197;53.200;5.792;2023-02-23T15:41:00;7.40;99.90
53310;DHT22;39197;53.200;5.792;2023-02-23T15:43:27;7.30;99.90
53310;DHT22;39197;53.200;5.792;2023-02-23T15:45:55;7.20;99.90
53310;DHT22;39197;53.200;5.792;2023-02-23T15:48:25;7.20;99.90
53310;DHT22;39197;53.200;5.792;2023-02-23T15:50:53;7.20;99.90
53310;DHT22;39197;53.200;5.792;2023-02-23T15:55:47;7.20;99.90
53310;DHT22;39197;53.200;5.792;2023-02-23T15:58:30;7.20;99.90
53310;DHT22;39197;53.200;5.792;2023-02-23T16:01:00;7.10;99.90
53310;DHT22;39197;53.200;5.792;2023-02-23T16:03:35;7.20;99.90
53310;DHT22;39197;53.200;5.792;2023-02-23T16:06:04;7.10;99.90
53310;DHT22;39197;53.200;5.792;2023-02-23T16:08:31;7.10;99.90
53310;DHT22;39197;53.200;5.792;2023-02-23T16:11:13;7.10;99.90
53310;DHT22;39197;53.200;5.792;2023-02-23T16:13:45;7.20;99.90
53310;DHT22;39197;53.200;5.792;2023-02-23T16:16:15;7.10;99.90
53310;DHT22;39197;53.200;5.792;2023-02-23T16:18:45;7.10;99.90
53310;DHT22;39197;53.200;5.792;2023-02-23T16:21:19;7.10;99.90
53310;DHT22;39197;53.200;5.792;2023-02-23T16:23:49;7.00;99.90
53310;DHT22;39197;53.200;5.792;2023-02-23T16:26:46;7.00;99.90
53310;DHT22;39197;53.200;5.792;2023-02-23T16:29:20;6.90;99.90
53310;DHT22;39197;53.200;5.792;2023-02-23T16:31:58;6.80;99.90
53310;DHT22;39197;53.200;5.792;2023-02-23T16:35:07;6.80;99.90
53310;DHT22;39197;53.200;5.792;2023-02-23T16:37:15;6.80;99.90
53310;DHT22;39197;53.200;5.792;2023-02-23T16:39:42;6.70;99.90
53310;DHT22;39197;53.200;5.792;2023-02-23T16:42:22;6.70;99.90
53310;DHT22;39197;53.200;5.792;2023-02-23T16:44:48;6.50;99.90
53310;DHT22;39197;53.200;5.792;2023-02-23T16:47:32;6.50;99.90
53310;DHT22;39197;53.200;5.792;2023-02-23T16:50:01;6.40;99.90
53310;DHT22;39197;53.200;5.792;2023-02-23T16:52:31;6.30;99.90
53310;DHT22;39197;53.200;5.792;2023-02-23T16:54:57;6.30;99.90
53310;DHT22;39197;53.200;5.792;2023-02-23T16:57:24;6.20;99.90
53310;DHT22;39197;53.200;5.792;2023-02-23T16:59:52;6.20;99.90
53310;DHT22;39197;53.200;5.792;2023-02-23T17:02:19;6.10;99.90
53310;DHT22;39197;53.200;5.792;2023-02-23T17:04:48;6.10;99.90
53310;DHT22;39197;53.200;5.792;2023-02-23T17:07:19;6.00;99.90
53310;DHT22;39197;53.200;5.792;2023-02-23T17:09:45;6.00;99.90
53310;DHT22;39197;53.200;5.792;2023-02-23T17:12:14;5.90;99.90
53310;DHT22;39197;53.200;5.792;2023-02-23T17:14:43;5.90;99.90
53310;DHT22;39197;53.200;5.792;2023-02-23T17:17:17;5.80;99.90
53310;DHT22;39197;53.200;5.792;2023-02-23T17:19:43;5.70;99.90
53310;DHT22;39197;53.200;5.792;2023-02-23T17:22:10;5.70;99.90
53310;DHT22;39197;53.200;5.792;2023-02-23T17:24:37;5.60;99.90
53310;DHT22;39197;53.200;5.792;2023-02-23T17:27:03;5.50;99.90
53310;DHT22;39197;53.200;5.792;2023-02-23T17:29:29;5.40;99.90
53310;DHT22;39197;53.200;5.792;2023-02-23T17:31:55;5.40;99.90
53310;DHT22;39197;53.200;5.792;2023-02-23T17:34:24;5.40;99.90
53310;DHT22;39197;53.200;5.792;2023-02-23T17:36:51;5.40;99.90
53310;DHT22;39197;53.200;5.792;2023-02-23T17:39:17;5.30;99.90
53310;DHT22;39197;53.200;5.792;2023-02-23T17:41:43;5.30;99.90
53310;DHT22;39197;53.200;5.792;2023-02-23T17:44:09;5.20;99.90
53310;DHT22;39197;53.200;5.792;2023-02-23T17:46:35;5.20;99.90
53310;DHT22;39197;53.200;5.792;2023-02-23T17:49:01;5.20;99.90
53310;DHT22;39197;53.200;5.792;2023-02-23T17:51:27;5.20;99.90
53310;DHT22;39197;53.200;5.792;2023-02-23T17:53:53;5.20;99.90
53310;DHT22;39197;53.200;5.792;2023-02-23T17:56:18;5.20;99.90